sensor_id;sensor_type;location;lat;lon;timestamp;P1;durP1;ratioP1;P2;durP2;ratioP2
16171;SDS011;8192;53.596;10.166;2022-07-11T00:01:58;7.90;;;3.00;;
16171;SDS011;8192;53.596;10.166;2022-07-11T00:04:30;11.70;;;4.13;;
16171;SDS011;8192;53.596;10.166;2022-07-11T00:06:59;12.53;;;3.73;;
16171;SDS011;8192;53.596;10.166;2022-07-11T00:09:32;14.20;;;3.40;;
16171;SDS011;8192;53.596;10.166;2022-07-11T00:12:00;18.30;;;3.93;;
16171;SDS011;8192;53.596;10.166;2022-07-11T00:17:15;12.90;;;3.83;;
16171;SDS011;8192;53.596;10.166;2022-07-11T00:19:50;9.67;;;3.70;;
16171;SDS011;8192;53.596;10.166;2022-07-11T00:22:19;13.60;;;3.77;;
16171;SDS011;8192;53.596;10.166;2022-07-11T00:24:49;17.93;;;4.27;;
16171;SDS011;8192;53.596;10.166;2022-07-11T00:27:17;10.93;;;3.60;;
16171;SDS011;8192;53.596;10.166;2022-07-11T00:29:51;8.20;;;3.50;;
16171;SDS011;8192;53.596;10.166;2022-07-11T00:32:21;7.67;;;3.40;;
16171;SDS011;8192;53.596;10.166;2022-07-11T00:34:49;9.30;;;3.43;;
16171;SDS011;8192;53.596;10.166;2022-07-11T00:37:18;10.90;;;3.93;;
16171;SDS011;8192;53.596;10.166;2022-07-11T00:39:58;7.93;;;3.50;;
16171;SDS011;8192;53.596;10.166;2022-07-11T00:42:36;10.70;;;3.83;;
16171;SDS011;8192;53.596;10.166;2022-07-11T00:45:07;16.27;;;3.87;;
16171;SDS011;8192;53.596;10.166;2022-07-11T00:47:42;9.87;;;3.10;;
16171;SDS011;8192;53.596;10.166;2022-07-11T00:50:24;11.13;;;3.40;;
16171;SDS011;8192;53.596;10.166;2022-07-11T00:52:52;11.70;;;3.57;;
16171;SDS011;8192;53.596;10.166;2022-07-11T00:55:26;11.13;;;3.67;;
16171;SDS011;8192;53.596;10.166;2022-07-11T00:57:55;6.53;;;3.70;;
16171;SDS011;8192;53.596;10.166;2022-07-11T01:00:37;10.47;;;3.70;;
16171;SDS011;8192;53.596;10.166;2022-07-11T01:04:04;11.23;;;3.57;;
16171;SDS011;8192;53.596;10.166;2022-07-11T01:06:37;10.67;;;3.60;;
16171;SDS011;8192;53.596;10.166;2022-07-11T01:09:05;8.47;;;3.50;;
16171;SDS011;8192;53.596;10.166;2022-07-11T01:11:34;9.87;;;3.60;;
16171;SDS011;8192;53.596;10.166;2022-07-11T01:14:01;10.27;;;3.70;;
16171;SDS011;8192;53.596;10.166;2022-07-11T01:16:28;8.30;;;3.37;;
16171;SDS011;8192;53.596;10.166;2022-07-11T01:18:56;12.07;;;3.60;;
16171;SDS011;8192;53.596;10.166;2022-07-11T01:21:23;8.60;;;3.60;;
16171;SDS011;8192;53.596;10.166;2022-07-11T01:23:56;16.40;;;4.40;;
16171;SDS011;8192;53.596;10.166;2022-07-11T01:26:24;7.80;;;3.80;;
16171;SDS011;8192;53.596;10.166;2022-07-11T01:28:53;16.20;;;3.90;;
16171;SDS011;8192;53.596;10.166;2022-07-11T01:31:23;9.87;;;3.90;;
16171;SDS011;8192;53.596;10.166;2022-07-11T01:33:51;10.40;;;3.90;;
16171;SDS011;8192;53.596;10.166;2022-07-11T01:36:19;13.37;;;4.00;;
16171;SDS011;8192;53.596;10.166;2022-07-11T01:38:46;10.37;;;3.60;;
16171;SDS011;8192;53.596;10.166;2022-07-11T01:41:15;16.90;;;3.60;;
16171;SDS011;8192;53.596;10.166;2022-07-11T01:43:53;8.87;;;3.40;;
16171;SDS011;8192;53.596;10.166;2022-07-11T01:46:38;8.97;;;3.60;;
16171;SDS011;8192;53.596;10.166;2022-07-11T01:49:07;12.57;;;3.60;;
16171;SDS011;8192;53.596;10.166;2022-07-11T01:51:34;9.03;;;3.77;;
16171;SDS011;8192;53.596;10.166;2022-07-11T01:54:01;8.27;;;3.53;;
16171;SDS011;8192;53.596;10.166;2022-07-11T01:56:35;13.13;;;3.67;;
16171;SDS011;8192;53.596;10.166;2022-07-11T01:59:08;9.20;;;3.57;;
16171;SDS011;8192;53.596;10.166;2022-07-11T02:01:47;7.40;;;3.43;;
16171;SDS011;8192;53.596;10.166;2022-07-11T02:04:30;12.80;;;4.43;;
16171;SDS011;8192;53.596;10.166;2022-07-11T02:07:06;10.73;;;4.20;;
16171;SDS011;8192;53.596;10.166;2022-07-11T02:09:48;9.50;;;3.73;;
16171;SDS011;8192;53.596;10.166;2022-07-11T02:12:46;8.53;;;3.53;;
16171;SDS011;8192;53.596;10.166;2022-07-11T02:19:30;11.87;;;3.50;;
16171;SDS011;8192;53.596;10.166;2022-07-11T02:21:57;10.97;;;3.50;;
16171;SDS011;8192;53.596;10.166;2022-07-11T02:24:30;8.83;;;3.70;;
16171;SDS011;8192;53.596;10.166;2022-07-11T02:27:07;6.13;;;3.60;;
16171;SDS011;8192;53.596;10.166;2022-07-11T02:29:36;13.13;;;3.77;;
16171;SDS011;8192;53.596;10.166;2022-07-11T02:32:04;10.47;;;3.63;;
16171;SDS011;8192;53.596;10.166;2022-07-11T02:34:32;12.00;;;3.90;;
16171;SDS011;8192;53.596;10.166;2022-07-11T02:37:19;8.40;;;3.70;;
16171;SDS011;8192;53.596;10.166;2022-07-11T02:49:01;8.90;;;3.70;;
16171;SDS011;8192;53.596;10.166;2022-07-11T02:51:33;12.60;;;3.67;;
16171;SDS011;8192;53.596;10.166;2022-07-11T02:54:04;7.63;;;3.13;;
16171;SDS011;8192;53.596;10.166;2022-07-11T02:56:32;11.60;;;3.70;;
16171;SDS011;8192;53.596;10.166;2022-07-11T03:02:04;11.03;;;3.70;;
16171;SDS011;8192;53.596;10.166;2022-07-11T03:04:34;9.53;;;3.67;;
16171;SDS011;8192;53.596;10.166;2022-07-11T03:07:03;10.00;;;3.77;;
16171;SDS011;8192;53.596;10.166;2022-07-11T03:09:31;11.03;;;3.83;;
16171;SDS011;8192;53.596;10.166;2022-07-11T03:11:58;11.57;;;4.73;;
16171;SDS011;8192;53.596;10.166;2022-07-11T03:14:26;8.37;;;3.70;;
16171;SDS011;8192;53.596;10.166;2022-07-11T03:16:53;10.23;;;4.03;;
16171;SDS011;8192;53.596;10.166;2022-07-11T03:19:20;9.57;;;4.40;;
16171;SDS011;8192;53.596;10.166;2022-07-11T03:21:49;9.87;;;3.67;;
16171;SDS011;8192;53.596;10.166;2022-07-11T03:24:17;9.70;;;3.93;;
16171;SDS011;8192;53.596;10.166;2022-07-11T03:26:44;8.97;;;3.67;;
16171;SDS011;8192;53.596;10.166;2022-07-11T03:29:11;7.73;;;3.87;;
16171;SDS011;8192;53.596;10.166;2022-07-11T03:31:38;11.17;;;4.00;;
16171;SDS011;8192;53.596;10.166;2022-07-11T03:34:06;10.53;;;4.70;;
16171;SDS011;8192;53.596;10.166;2022-07-11T03:36:33;13.07;;;4.27;;
16171;SDS011;8192;53.596;10.166;2022-07-11T03:39:01;11.93;;;3.73;;
16171;SDS011;8192;53.596;10.166;2022-07-11T03:41:30;8.13;;;3.80;;
16171;SDS011;8192;53.596;10.166;2022-07-11T03:43:57;10.87;;;4.23;;
16171;SDS011;8192;53.596;10.166;2022-07-11T03:46:24;15.90;;;3.80;;
16171;SDS011;8192;53.596;10.166;2022-07-11T03:48:54;8.57;;;3.70;;
16171;SDS011;8192;53.596;10.166;2022-07-11T03:51:24;7.87;;;3.77;;
16171;SDS011;8192;53.596;10.166;2022-07-11T03:53:52;7.83;;;3.77;;
16171;SDS011;8192;53.596;10.166;2022-07-11T03:59:46;10.43;;;3.90;;
16171;SDS011;8192;53.596;10.166;2022-07-11T04:02:15;10.07;;;3.60;;
16171;SDS011;8192;53.596;10.166;2022-07-11T04:04:44;10.17;;;3.73;;
16171;SDS011;8192;53.596;10.166;2022-07-11T04:07:11;17.73;;;3.87;;
16171;SDS011;8192;53.596;10.166;2022-07-11T04:09:41;10.90;;;3.83;;
16171;SDS011;8192;53.596;10.166;2022-07-11T04:12:11;13.90;;;4.30;;
16171;SDS011;8192;53.596;10.166;2022-07-11T04:14:39;8.93;;;3.90;;
16171;SDS011;8192;53.596;10.166;2022-07-11T04:23:39;12.03;;;4.00;;
16171;SDS011;8192;53.596;10.166;2022-07-11T04:26:23;10.47;;;3.20;;
16171;SDS011;8192;53.596;10.166;2022-07-11T04:29:04;8.53;;;2.67;;
16171;SDS011;8192;53.596;10.166;2022-07-11T04:31:34;8.90;;;2.70;;
16171;SDS011;8192;53.596;10.166;2022-07-11T04:34:03;7.87;;;2.67;;
16171;SDS011;8192;53.596;10.166;2022-07-11T04:36:35;10.47;;;2.40;;
16171;SDS011;8192;53.596;10.166;2022-07-11T04:39:06;7.03;;;1.80;;
16171;SDS011;8192;53.596;10.166;2022-07-11T04:41:37;10.33;;;2.13;;
16171;SDS011;8192;53.596;10.166;2022-07-11T04:44:09;7.63;;;1.90;;
16171;SDS011;8192;53.596;10.166;2022-07-11T04:46:51;10.33;;;2.10;;
16171;SDS011;8192;53.596;10.166;2022-07-11T04:49:19;7.10;;;1.80;;
16171;SDS011;8192;53.596;10.166;2022-07-11T04:51:46;4.87;;;1.80;;
16171;SDS011;8192;53.596;10.166;2022-07-11T04:54:23;6.47;;;1.33;;
16171;SDS011;8192;53.596;10.166;2022-07-11T04:56:51;7.97;;;1.60;;
16171;SDS011;8192;53.596;10.166;2022-07-11T04:59:29;7.90;;;1.60;;
16171;SDS011;8192;53.596;10.166;2022-07-11T05:01:58;5.77;;;1.73;;
16171;SDS011;8192;53.596;10.166;2022-07-11T05:07:32;8.50;;;1.90;;
16171;SDS011;8192;53.596;10.166;2022-07-11T05:10:05;13.77;;;1.70;;
16171;SDS011;8192;53.596;10.166;2022-07-11T05:12:33;7.87;;;1.50;;
16171;SDS011;8192;53.596;10.166;2022-07-11T05:15:07;6.57;;;1.50;;
16171;SDS011;8192;53.596;10.166;2022-07-11T05:17:44;4.50;;;1.27;;
16171;SDS011;8192;53.596;10.166;2022-07-11T05:20:11;3.87;;;1.20;;
16171;SDS011;8192;53.596;10.166;2022-07-11T05:22:40;7.20;;;1.53;;
16171;SDS011;8192;53.596;10.166;2022-07-11T05:25:17;6.03;;;1.60;;
16171;SDS011;8192;53.596;10.166;2022-07-11T05:27:58;7.53;;;1.43;;
16171;SDS011;8192;53.596;10.166;2022-07-11T05:30:30;6.03;;;1.80;;
16171;SDS011;8192;53.596;10.166;2022-07-11T05:33:01;4.50;;;1.10;;
16171;SDS011;8192;53.596;10.166;2022-07-11T05:35:50;4.77;;;1.60;;
16171;SDS011;8192;53.596;10.166;2022-07-11T05:38:18;7.10;;;1.50;;
16171;SDS011;8192;53.596;10.166;2022-07-11T05:41:25;4.80;;;1.30;;
16171;SDS011;8192;53.596;10.166;2022-07-11T05:47:04;7.00;;;1.50;;
16171;SDS011;8192;53.596;10.166;2022-07-11T05:49:44;6.10;;;1.37;;
16171;SDS011;8192;53.596;10.166;2022-07-11T05:52:25;7.77;;;1.87;;
16171;SDS011;8192;53.596;10.166;2022-07-11T05:55:20;6.13;;;1.30;;
16171;SDS011;8192;53.596;10.166;2022-07-11T06:01:24;4.70;;;1.37;;
16171;SDS011;8192;53.596;10.166;2022-07-11T06:03:57;8.73;;;1.20;;
16171;SDS011;8192;53.596;10.166;2022-07-11T06:06:37;4.27;;;1.23;;
16171;SDS011;8192;53.596;10.166;2022-07-11T06:19:04;4.57;;;1.20;;
16171;SDS011;8192;53.596;10.166;2022-07-11T06:21:32;4.40;;;0.97;;
16171;SDS011;8192;53.596;10.166;2022-07-11T06:27:17;4.17;;;1.10;;
16171;SDS011;8192;53.596;10.166;2022-07-11T06:33:12;4.80;;;1.00;;
16171;SDS011;8192;53.596;10.166;2022-07-11T06:35:56;7.43;;;1.13;;
16171;SDS011;8192;53.596;10.166;2022-07-11T06:38:26;5.90;;;1.10;;
16171;SDS011;8192;53.596;10.166;2022-07-11T06:40:58;3.23;;;0.90;;
16171;SDS011;8192;53.596;10.166;2022-07-11T06:43:41;5.03;;;1.23;;
16171;SDS011;8192;53.596;10.166;2022-07-11T06:46:19;3.33;;;0.73;;
16171;SDS011;8192;53.596;10.166;2022-07-11T06:49:00;5.43;;;1.03;;
16171;SDS011;8192;53.596;10.166;2022-07-11T06:51:54;3.47;;;0.90;;
16171;SDS011;8192;53.596;10.166;2022-07-11T06:54:22;3.00;;;0.93;;
16171;SDS011;8192;53.596;10.166;2022-07-11T06:56:52;1.70;;;0.50;;
16171;SDS011;8192;53.596;10.166;2022-07-11T06:59:35;5.60;;;0.90;;
16171;SDS011;8192;53.596;10.166;2022-07-11T07:02:17;2.13;;;0.80;;
16171;SDS011;8192;53.596;10.166;2022-07-11T07:05:03;4.27;;;0.77;;
16171;SDS011;8192;53.596;10.166;2022-07-11T07:10:35;7.50;;;0.80;;
16171;SDS011;8192;53.596;10.166;2022-07-11T07:13:03;2.83;;;0.80;;
16171;SDS011;8192;53.596;10.166;2022-07-11T07:15:30;2.73;;;0.90;;
16171;SDS011;8192;53.596;10.166;2022-07-11T07:17:57;6.80;;;0.93;;
16171;SDS011;8192;53.596;10.166;2022-07-11T07:20:26;3.13;;;1.30;;
16171;SDS011;8192;53.596;10.166;2022-07-11T07:22:54;5.47;;;1.13;;
16171;SDS011;8192;53.596;10.166;2022-07-11T07:25:23;4.70;;;0.70;;
16171;SDS011;8192;53.596;10.166;2022-07-11T07:27:55;2.47;;;0.70;;
16171;SDS011;8192;53.596;10.166;2022-07-11T07:30:30;2.87;;;0.70;;
16171;SDS011;8192;53.596;10.166;2022-07-11T07:32:58;5.47;;;0.80;;
16171;SDS011;8192;53.596;10.166;2022-07-11T07:35:41;2.97;;;0.57;;
16171;SDS011;8192;53.596;10.166;2022-07-11T07:38:08;3.70;;;0.80;;
16171;SDS011;8192;53.596;10.166;2022-07-11T07:40:37;3.03;;;0.80;;
16171;SDS011;8192;53.596;10.166;2022-07-11T07:43:04;6.10;;;0.70;;
16171;SDS011;8192;53.596;10.166;2022-07-11T07:45:32;5.23;;;0.70;;
16171;SDS011;8192;53.596;10.166;2022-07-11T07:48:05;3.63;;;0.77;;
16171;SDS011;8192;53.596;10.166;2022-07-11T07:50:32;4.18;;;0.90;;
16171;SDS011;8192;53.596;10.166;2022-07-11T07:52:58;4.07;;;0.80;;
16171;SDS011;8192;53.596;10.166;2022-07-11T07:55:25;3.57;;;0.73;;
16171;SDS011;8192;53.596;10.166;2022-07-11T07:57:54;3.97;;;1.03;;
16171;SDS011;8192;53.596;10.166;2022-07-11T08:00:21;1.57;;;0.73;;
16171;SDS011;8192;53.596;10.166;2022-07-11T08:03:05;3.17;;;0.90;;
16171;SDS011;8192;53.596;10.166;2022-07-11T08:05:33;3.95;;;0.95;;
16171;SDS011;8192;53.596;10.166;2022-07-11T08:08:00;3.05;;;0.93;;
16171;SDS011;8192;53.596;10.166;2022-07-11T08:10:28;3.88;;;0.70;;
16171;SDS011;8192;53.596;10.166;2022-07-11T08:12:58;2.25;;;0.80;;
16171;SDS011;8192;53.596;10.166;2022-07-11T08:15:25;1.90;;;0.70;;
16171;SDS011;8192;53.596;10.166;2022-07-11T08:17:52;1.77;;;0.60;;
16171;SDS011;8192;53.596;10.166;2022-07-11T08:23:41;2.45;;;0.73;;
16171;SDS011;8192;53.596;10.166;2022-07-11T08:26:07;1.85;;;0.70;;
16171;SDS011;8192;53.596;10.166;2022-07-11T08:28:36;3.13;;;0.85;;
16171;SDS011;8192;53.596;10.166;2022-07-11T08:31:03;2.00;;;0.93;;
16171;SDS011;8192;53.596;10.166;2022-07-11T08:33:30;2.83;;;0.80;;
16171;SDS011;8192;53.596;10.166;2022-07-11T08:35:57;3.72;;;0.88;;
16171;SDS011;8192;53.596;10.166;2022-07-11T08:38:24;1.38;;;0.63;;
16171;SDS011;8192;53.596;10.166;2022-07-11T08:40:51;0.90;;;0.57;;
16171;SDS011;8192;53.596;10.166;2022-07-11T08:43:21;2.97;;;0.60;;
16171;SDS011;8192;53.596;10.166;2022-07-11T08:45:54;3.20;;;0.90;;
16171;SDS011;8192;53.596;10.166;2022-07-11T08:48:21;3.72;;;0.70;;
16171;SDS011;8192;53.596;10.166;2022-07-11T08:50:49;1.73;;;0.70;;
16171;SDS011;8192;53.596;10.166;2022-07-11T08:53:17;2.83;;;0.97;;
16171;SDS011;8192;53.596;10.166;2022-07-11T08:59:06;1.80;;;0.60;;
16171;SDS011;8192;53.596;10.166;2022-07-11T09:01:35;4.97;;;0.97;;
16171;SDS011;8192;53.596;10.166;2022-07-11T09:04:07;1.70;;;0.70;;
16171;SDS011;8192;53.596;10.166;2022-07-11T09:06:34;4.13;;;0.80;;
16171;SDS011;8192;53.596;10.166;2022-07-11T09:09:01;2.63;;;0.73;;
16171;SDS011;8192;53.596;10.166;2022-07-11T09:11:29;1.83;;;0.60;;
16171;SDS011;8192;53.596;10.166;2022-07-11T09:14:19;2.27;;;0.67;;
16171;SDS011;8192;53.596;10.166;2022-07-11T09:16:53;3.77;;;0.90;;
16171;SDS011;8192;53.596;10.166;2022-07-11T09:19:21;1.83;;;0.60;;
16171;SDS011;8192;53.596;10.166;2022-07-11T09:21:59;3.03;;;0.80;;
16171;SDS011;8192;53.596;10.166;2022-07-11T09:24:52;3.97;;;0.80;;
16171;SDS011;8192;53.596;10.166;2022-07-11T09:31:14;4.00;;;0.87;;
16171;SDS011;8192;53.596;10.166;2022-07-11T09:40:10;4.43;;;0.90;;
16171;SDS011;8192;53.596;10.166;2022-07-11T09:42:45;2.20;;;0.60;;
16171;SDS011;8192;53.596;10.166;2022-07-11T09:45:13;2.03;;;0.70;;
16171;SDS011;8192;53.596;10.166;2022-07-11T09:51:03;2.83;;;0.60;;
16171;SDS011;8192;53.596;10.166;2022-07-11T09:53:30;2.20;;;0.70;;
16171;SDS011;8192;53.596;10.166;2022-07-11T09:55:59;3.53;;;0.80;;
16171;SDS011;8192;53.596;10.166;2022-07-11T09:58:28;1.37;;;0.70;;
16171;SDS011;8192;53.596;10.166;2022-07-11T10:01:35;2.10;;;0.60;;
16171;SDS011;8192;53.596;10.166;2022-07-11T10:04:03;4.53;;;0.70;;
16171;SDS011;8192;53.596;10.166;2022-07-11T10:06:31;3.03;;;0.90;;
16171;SDS011;8192;53.596;10.166;2022-07-11T10:08:58;2.73;;;0.80;;
16171;SDS011;8192;53.596;10.166;2022-07-11T10:11:27;1.77;;;0.70;;
16171;SDS011;8192;53.596;10.166;2022-07-11T10:13:54;2.70;;;0.70;;
16171;SDS011;8192;53.596;10.166;2022-07-11T10:16:22;1.27;;;0.77;;
16171;SDS011;8192;53.596;10.166;2022-07-11T10:18:57;1.40;;;0.50;;
16171;SDS011;8192;53.596;10.166;2022-07-11T10:21:37;1.90;;;0.50;;
16171;SDS011;8192;53.596;10.166;2022-07-11T10:24:13;1.57;;;0.50;;
16171;SDS011;8192;53.596;10.166;2022-07-11T10:26:53;5.47;;;1.20;;
16171;SDS011;8192;53.596;10.166;2022-07-11T10:29:27;3.53;;;0.87;;
16171;SDS011;8192;53.596;10.166;2022-07-11T10:32:04;2.00;;;0.80;;
16171;SDS011;8192;53.596;10.166;2022-07-11T10:34:32;3.87;;;0.90;;
